Watertown, TN

5:09 PM CDT on August 27, 2014 (GMT -0500)
Tullahoma Regional-Northern | Change Station
CLOSE
Current Station
Airport
Location: Tullahoma,
Elevation: 1083 ft
Nearby Weather Stations

Elev 1083 ft 35.38 °N, 86.25 °W | Updated 14 minutes ago

Partly Cloudy
Partly Cloudy
88 °F
Feels Like 88 °F
N
6
Wind Variable Wind from NE

Today
High -- | Low -- °F
--% Chance of Precip.
Yesterday
High -- | Low -- °F
Precip. -- in
6:12 AM 7:19 PM
Waxing Crescent, 5% visible
Pressure 30.06 in
Visibility 10.0 miles
Clouds Few 5500 ft
Heat Index 88 °F
Dew Point 63 °F
Humidity 43%
Rainfall 0.00 in
Snow Depth Not available.
UV 3 out of 12
Pollen 10.50 out of 12
Ozone Good
PM2.5 Moderate
Flu Activity Not available.
METAR KTHA 272155Z AUTO 04005KT 10SM FEW055 31/17 A3006 RMK

More Conditions Fewer Conditions

Pressure 30.06 in
Visibility 10.0 miles
Clouds Few 5500 ft
Heat Index 88 °F
Dew Point 63 °F
Humidity 43%
Rainfall 0.00 in
Snow Depth Not available.
UV 3 out of 12
Pollen 10.50 out of 12
Ozone Good
PM2.5 Moderate
Flu Activity Not available.
METAR KTHA 272155Z AUTO 04005KT 10SM FEW055 31/17 A3006 RMK

More Conditions Fewer Conditions

10-Day Weather Forecast

Almanac

Astronomy

Aug. 27, 2014 Rise Set
Actual Time 6:12 AM CDT 7:19 PM CDT
Civil Twilight 5:45 AM CDT 7:45 PM CDT
Nautical Twilight 5:14 AM CDT 8:17 PM CDT
Astronomical Twilight 4:41 AM CDT 8:49 PM CDT
Moon 8:03 AM CDT 8:16 PM CDT
Length of Visible Light 13h 59m
Length of Day
13h 06m
Tomorrow will be 2m 9s shorter.
Waxing Crescent, 5% of the Moon is Illuminated
Today
Waxing Crescent
Sep 2
First Quarter
Sep 8
Full
Sep 15
Last Quarter
Sep 24
New

Today's Extremes

State Highs State Lows

Community

WunderPhotos

Upload Photos

1,747,798 photos uploaded!

Nearby

Air Quality

  Air Quality AQ Index Pollutant
Yesterday Moderate
OZONE
Yesterday Good
PM2.5
Current Moderate
PM2.5
Current Good
OZONE
Wednesday Moderate
OZONE
Wednesday Good
PM2.5
Thursday Moderate
OZONE
Thursday Moderate
PM2.5
Friday Moderate
OZONE
Friday Moderate
PM2.5

Snow Depth

Station Depth Elevation
No new snow has been reported.

Earthquake Activity

City Distance Mag. Time & Date
No recent earthquake activity has been reported nearby.
Minimum magnitude displayed is 2.5.

Coastal Water Temperatures

Place Temperature
No Stations Reporting

Nearby Weather Stations